Nearby METAR Reports

 

EGNM - Leeds And Bradford, United Kingdom
Distance from station: N 11mi, 18km
Updated: 06/04/2020 07:50
Clear
Clear
 Wind from SW
Wind: SW 16 mph , 26 km/h
Temperature: 11°C
Dew Point: 6°C
Humidity: 72%
Barometer: 1009 hPa
Summary: Clear
Visibility: greater than 7 miles , 10 km
2020/04/06 07:50 EGNM 060750Z 22014KT CAVOK 11/06 Q1009
EGXU - Linton-On-Ouse, United Kingdom
Distance from station: NNE 28mi, 45km
Updated: 06/04/2020 07:50
Few Clouds
Few Clouds
 Wind from SW
Wind: SW 12 mph , 19 km/h
Temperature: 12°C
Dew Point: 7°C
Humidity: 72%
Barometer: 1009 hPa
Clouds: Few Clouds
Visibility: 6 miles , 10 km
Cloud details: Few Clouds 1829 m
2020/04/06 07:50 EGXU 060750Z AUTO 23010KT 9999 FEW060/// 12/07 Q1009
 
EGCN - Doncaster Sheffield, United Kingdom
Distance from station: ESE 30mi, 45km
Updated: 06/04/2020 07:50
Partly cloudy
Partly cloudy
 Wind from SW
Wind: SW 13 mph , 20 km/h
Temperature: 12°C
Dew Point: 8°C
Humidity: 77%
Barometer: 1012 hPa
Clouds: Partly cloudy
Visibility: 6 miles , 10 km
Cloud details: Few Clouds 701 m
Partly cloudy 1372 m
2020/04/06 07:50 EGCN 060750Z 22011KT 9999 FEW023 SCT045 12/08 Q1012
EGXZ - Topcliffe RAF, United Kingdom
Distance from station: NNE 36mi, 57km
Updated: 06/04/2020 07:50
Few Clouds
Few Clouds
 Wind from SW
Wind: SW 16 mph , 26 km/h, Gust: 31 mph , 50 km/h
Temperature: 12°C
Dew Point: 7°C
Humidity: 72%
Barometer: 1009 hPa
Clouds: Few Clouds
Visibility: 6 miles , 10 km
Cloud details: Few Clouds 762 m
2020/04/06 07:50 EGXZ 060750Z AUTO 23014G27KT 9999 FEW025/// 12/07 Q1009
 
EGCC - Manchester Intl, United Kingdom
Distance from station: SW 36mi, 58km
Updated: 06/04/2020 07:50
Clear
Clear
 Wind from SSW
Wind: SSW 10 mph , 17 km/h
Temperature: 11°C
Dew Point: 6°C
Humidity: 72%
Barometer: 1011 hPa
Clouds: Clear
Visibility: 6 miles , 10 km
2020/04/06 07:50 EGCC 060750Z AUTO 21009KT 9999 NCD 11/06 Q1011
EGXE - Leeming RAF, United Kingdom
Distance from station: N 40mi, 65km
Updated: 06/04/2020 07:50
Few Clouds
Few Clouds
 Wind from SW
Wind: SW 20 mph , 31 km/h
Temperature: 12°C
Dew Point: 6°C
Humidity: 67%
Barometer: 1009 hPa
Clouds: Few Clouds
Visibility: 6 miles , 10 km
Cloud details: Few Clouds 671 m
2020/04/06 07:50 EGXE 060750Z 22017KT 9999 FEW022 12/06 Q1009 NOSIG RMK BLU BLU